sensor_id;sensor_type;location;lat;lon;timestamp;pressure;altitude;pressure_sealevel;temperature;humidity
73453;BME280;61687;56.232;43.854;2023-02-18T00:00:16;101131.91;;;-3.21;69.90
73453;BME280;61687;56.232;43.854;2023-02-18T00:02:43;101127.34;;;-3.20;69.88
73453;BME280;61687;56.232;43.854;2023-02-18T00:05:10;101118.22;;;-3.24;69.75
73453;BME280;61687;56.232;43.854;2023-02-18T00:07:37;101113.41;;;-3.22;69.70
73453;BME280;61687;56.232;43.854;2023-02-18T00:10:04;101124.44;;;-3.19;69.77
73453;BME280;61687;56.232;43.854;2023-02-18T00:12:31;101119.38;;;-3.15;70.01
73453;BME280;61687;56.232;43.854;2023-02-18T00:14:57;101126.09;;;-3.12;69.85
73453;BME280;61687;56.232;43.854;2023-02-18T00:17:23;101110.31;;;-3.09;69.56
73453;BME280;61687;56.232;43.854;2023-02-18T00:19:49;101109.25;;;-3.08;69.32
73453;BME280;61687;56.232;43.854;2023-02-18T00:22:15;101104.19;;;-3.04;69.30
73453;BME280;61687;56.232;43.854;2023-02-18T00:24:41;101103.63;;;-3.06;69.34
73453;BME280;61687;56.232;43.854;2023-02-18T00:27:07;101102.25;;;-3.09;69.25
73453;BME280;61687;56.232;43.854;2023-02-18T00:29:34;101096.59;;;-3.12;69.17
73453;BME280;61687;56.232;43.854;2023-02-18T00:32:00;101093.88;;;-3.18;69.22
73453;BME280;61687;56.232;43.854;2023-02-18T00:34:28;101095.50;;;-3.17;69.31
73453;BME280;61687;56.232;43.854;2023-02-18T00:36:54;101089.03;;;-3.21;69.02
73453;BME280;61687;56.232;43.854;2023-02-18T00:39:20;101087.41;;;-3.22;69.38
73453;BME280;61687;56.232;43.854;2023-02-18T00:41:47;101086.91;;;-3.19;69.37
73453;BME280;61687;56.232;43.854;2023-02-18T00:44:14;101079.91;;;-3.20;69.33
73453;BME280;61687;56.232;43.854;2023-02-18T00:46:40;101079.69;;;-3.18;69.21
73453;BME280;61687;56.232;43.854;2023-02-18T00:49:06;101081.53;;;-3.19;69.38
73453;BME280;61687;56.232;43.854;2023-02-18T00:51:34;101084.22;;;-3.19;69.35
73453;BME280;61687;56.232;43.854;2023-02-18T00:54:01;101078.31;;;-3.21;69.33
73453;BME280;61687;56.232;43.854;2023-02-18T00:56:27;101072.44;;;-3.18;69.27
73453;BME280;61687;56.232;43.854;2023-02-18T00:58:53;101074.00;;;-3.22;69.31
73453;BME280;61687;56.232;43.854;2023-02-18T01:01:19;101069.72;;;-3.23;69.36
73453;BME280;61687;56.232;43.854;2023-02-18T01:03:45;101066.41;;;-3.30;69.64
73453;BME280;61687;56.232;43.854;2023-02-18T01:06:13;101061.31;;;-3.32;69.71
73453;BME280;61687;56.232;43.854;2023-02-18T01:08:39;101061.53;;;-3.38;69.65
73453;BME280;61687;56.232;43.854;2023-02-18T01:11:07;101064.72;;;-3.41;69.52
73453;BME280;61687;56.232;43.854;2023-02-18T01:13:33;101059.31;;;-3.47;69.87
73453;BME280;61687;56.232;43.854;2023-02-18T01:15:59;101055.28;;;-3.49;69.93
73453;BME280;61687;56.232;43.854;2023-02-18T01:18:28;101055.78;;;-3.52;69.82
73453;BME280;61687;56.232;43.854;2023-02-18T01:20:55;101052.00;;;-3.56;69.71
73453;BME280;61687;56.232;43.854;2023-02-18T01:23:22;101050.44;;;-3.52;69.58
73453;BME280;61687;56.232;43.854;2023-02-18T01:25:48;101036.81;;;-3.46;69.53
73453;BME280;61687;56.232;43.854;2023-02-18T01:28:15;101033.94;;;-3.39;69.30
73453;BME280;61687;56.232;43.854;2023-02-18T01:30:41;101038.28;;;-3.33;69.38
73453;BME280;61687;56.232;43.854;2023-02-18T01:33:07;101028.63;;;-3.34;69.31
73453;BME280;61687;56.232;43.854;2023-02-18T01:35:33;101036.09;;;-3.36;69.38
73453;BME280;61687;56.232;43.854;2023-02-18T01:37:59;101040.59;;;-3.41;69.43
73453;BME280;61687;56.232;43.854;2023-02-18T01:40:28;101038.47;;;-3.39;69.51
73453;BME280;61687;56.232;43.854;2023-02-18T01:42:55;101036.34;;;-3.37;69.45
73453;BME280;61687;56.232;43.854;2023-02-18T01:48:16;101031.50;;;-3.40;69.39
73453;BME280;61687;56.232;43.854;2023-02-18T01:50:49;101027.72;;;-3.45;69.41
73453;BME280;61687;56.232;43.854;2023-02-18T01:53:21;101023.34;;;-3.51;69.46
73453;BME280;61687;56.232;43.854;2023-02-18T01:55:50;101024.50;;;-3.47;69.44
73453;BME280;61687;56.232;43.854;2023-02-18T01:58:16;101021.19;;;-3.54;69.30
73453;BME280;61687;56.232;43.854;2023-02-18T02:00:44;101021.75;;;-3.52;69.51
73453;BME280;61687;56.232;43.854;2023-02-18T02:03:10;101013.22;;;-3.49;69.52
73453;BME280;61687;56.232;43.854;2023-02-18T02:05:36;101011.38;;;-3.43;69.43
73453;BME280;61687;56.232;43.854;2023-02-18T02:08:03;101012.22;;;-3.37;69.33
73453;BME280;61687;56.232;43.854;2023-02-18T02:24:59;100988.59;;;-3.46;68.91
73453;BME280;61687;56.232;43.854;2023-02-18T02:30:41;100991.47;;;-3.52;69.05
73453;BME280;61687;56.232;43.854;2023-02-18T02:35:59;100984.16;;;-3.62;69.27
73453;BME280;61687;56.232;43.854;2023-02-18T02:38:52;100986.81;;;-3.67;69.27
73453;BME280;61687;56.232;43.854;2023-02-18T02:46:36;100986.34;;;-3.54;69.01
73453;BME280;61687;56.232;43.854;2023-02-18T02:49:19;100972.97;;;-3.54;69.03
73453;BME280;61687;56.232;43.854;2023-02-18T02:54:29;100967.16;;;-3.46;69.02
73453;BME280;61687;56.232;43.854;2023-02-18T02:57:52;100962.34;;;-3.43;69.08
73453;BME280;61687;56.232;43.854;2023-02-18T03:00:08;100966.13;;;-3.39;68.93
73453;BME280;61687;56.232;43.854;2023-02-18T03:10:59;100945.06;;;-3.58;69.00
73453;BME280;61687;56.232;43.854;2023-02-18T03:16:34;100931.34;;;-3.67;69.24
73453;BME280;61687;56.232;43.854;2023-02-18T03:19:09;100928.97;;;-3.63;69.23
73453;BME280;61687;56.232;43.854;2023-02-18T03:21:43;100938.63;;;-3.62;69.11
73453;BME280;61687;56.232;43.854;2023-02-18T03:26:41;100929.91;;;-3.80;69.38
73453;BME280;61687;56.232;43.854;2023-02-18T03:29:09;100935.22;;;-3.85;69.49
73453;BME280;61687;56.232;43.854;2023-02-18T03:31:37;100924.31;;;-3.78;69.70
73453;BME280;61687;56.232;43.854;2023-02-18T03:34:10;100934.78;;;-3.71;69.68
73453;BME280;61687;56.232;43.854;2023-02-18T03:36:38;100936.41;;;-3.70;69.75
73453;BME280;61687;56.232;43.854;2023-02-18T03:39:13;100932.63;;;-3.75;69.80
73453;BME280;61687;56.232;43.854;2023-02-18T03:41:40;100928.63;;;-3.72;69.77
73453;BME280;61687;56.232;43.854;2023-02-18T03:44:08;100929.19;;;-3.70;69.74
73453;BME280;61687;56.232;43.854;2023-02-18T03:46:36;100935.41;;;-3.64;69.61
73453;BME280;61687;56.232;43.854;2023-02-18T03:49:03;100922.00;;;-3.64;69.19
73453;BME280;61687;56.232;43.854;2023-02-18T03:51:30;100919.00;;;-3.68;69.24
73453;BME280;61687;56.232;43.854;2023-02-18T03:53:55;100922.25;;;-3.66;69.46
73453;BME280;61687;56.232;43.854;2023-02-18T03:56:21;100917.19;;;-3.62;69.50
73453;BME280;61687;56.232;43.854;2023-02-18T03:58:48;100915.59;;;-3.58;69.39
73453;BME280;61687;56.232;43.854;2023-02-18T04:01:15;100917.22;;;-3.57;69.39
73453;BME280;61687;56.232;43.854;2023-02-18T04:03:41;100916.97;;;-3.55;69.20
73453;BME280;61687;56.232;43.854;2023-02-18T04:06:07;100914.53;;;-3.57;69.22
73453;BME280;61687;56.232;43.854;2023-02-18T04:08:34;100914.50;;;-3.62;69.35
73453;BME280;61687;56.232;43.854;2023-02-18T04:11:03;100910.47;;;-3.65;69.32
73453;BME280;61687;56.232;43.854;2023-02-18T04:13:30;100907.34;;;-3.89;69.38
73453;BME280;61687;56.232;43.854;2023-02-18T04:15:56;100906.88;;;-4.08;69.70
73453;BME280;61687;56.232;43.854;2023-02-18T04:18:22;100901.66;;;-4.25;70.03
73453;BME280;61687;56.232;43.854;2023-02-18T04:20:48;100899.78;;;-4.25;70.17
73453;BME280;61687;56.232;43.854;2023-02-18T04:23:15;100906.03;;;-4.14;70.25
73453;BME280;61687;56.232;43.854;2023-02-18T04:25:41;100905.03;;;-4.08;69.94
73453;BME280;61687;56.232;43.854;2023-02-18T04:28:06;100901.84;;;-4.05;70.06
73453;BME280;61687;56.232;43.854;2023-02-18T04:30:35;100901.34;;;-4.02;69.93
73453;BME280;61687;56.232;43.854;2023-02-18T04:33:01;100902.44;;;-3.97;69.66
73453;BME280;61687;56.232;43.854;2023-02-18T04:35:27;100904.91;;;-3.91;69.49
73453;BME280;61687;56.232;43.854;2023-02-18T04:37:53;100904.41;;;-3.88;69.10
73453;BME280;61687;56.232;43.854;2023-02-18T04:40:19;100905.22;;;-3.87;69.04
73453;BME280;61687;56.232;43.854;2023-02-18T04:42:45;100904.16;;;-3.86;69.32
73453;BME280;61687;56.232;43.854;2023-02-18T04:45:11;100906.56;;;-3.84;69.14
73453;BME280;61687;56.232;43.854;2023-02-18T04:47:37;100904.94;;;-3.85;69.22
73453;BME280;61687;56.232;43.854;2023-02-18T04:50:03;100906.63;;;-3.79;69.03
73453;BME280;61687;56.232;43.854;2023-02-18T04:52:29;100904.19;;;-3.81;69.09
73453;BME280;61687;56.232;43.854;2023-02-18T04:54:55;100900.44;;;-3.80;68.86
73453;BME280;61687;56.232;43.854;2023-02-18T04:57:21;100901.25;;;-3.79;68.99
73453;BME280;61687;56.232;43.854;2023-02-18T04:59:47;100901.25;;;-3.79;68.94
73453;BME280;61687;56.232;43.854;2023-02-18T05:02:13;100898.28;;;-3.83;69.00
73453;BME280;61687;56.232;43.854;2023-02-18T05:04:39;100895.09;;;-3.80;69.06
73453;BME280;61687;56.232;43.854;2023-02-18T05:07:05;100897.72;;;-3.85;69.21
73453;BME280;61687;56.232;43.854;2023-02-18T05:09:31;100894.50;;;-3.87;69.22
73453;BME280;61687;56.232;43.854;2023-02-18T05:11:57;100898.25;;;-3.88;69.30
73453;BME280;61687;56.232;43.854;2023-02-18T05:14:23;100900.63;;;-3.92;69.29
73453;BME280;61687;56.232;43.854;2023-02-18T05:16:49;100889.16;;;-3.87;69.18
73453;BME280;61687;56.232;43.854;2023-02-18T05:19:15;100903.88;;;-3.84;69.14
73453;BME280;61687;56.232;43.854;2023-02-18T05:21:42;100888.06;;;-3.91;69.03
73453;BME280;61687;56.232;43.854;2023-02-18T05:24:08;100886.44;;;-3.92;69.14
73453;BME280;61687;56.232;43.854;2023-02-18T05:26:34;100884.03;;;-3.89;69.07
73453;BME280;61687;56.232;43.854;2023-02-18T05:29:00;100875.75;;;-3.87;69.07
73453;BME280;61687;56.232;43.854;2023-02-18T05:31:26;100870.13;;;-3.85;68.95
73453;BME280;61687;56.232;43.854;2023-02-18T05:33:52;100871.47;;;-3.88;68.97
73453;BME280;61687;56.232;43.854;2023-02-18T05:36:18;100868.44;;;-3.97;69.00
73453;BME280;61687;56.232;43.854;2023-02-18T05:38:44;100863.31;;;-4.04;69.15
73453;BME280;61687;56.232;43.854;2023-02-18T05:41:09;100860.63;;;-4.04;69.27
73453;BME280;61687;56.232;43.854;2023-02-18T05:43:35;100866.03;;;-3.98;69.29
73453;BME280;61687;56.232;43.854;2023-02-18T05:46:22;100858.03;;;-3.93;69.17
73453;BME280;61687;56.232;43.854;2023-02-18T05:48:48;100864.53;;;-3.84;68.95
73453;BME280;61687;56.232;43.854;2023-02-18T05:51:14;100855.69;;;-3.84;68.89
73453;BME280;61687;56.232;43.854;2023-02-18T05:53:40;100855.69;;;-3.84;68.55
73453;BME280;61687;56.232;43.854;2023-02-18T05:56:06;100855.41;;;-3.88;68.57
73453;BME280;61687;56.232;43.854;2023-02-18T05:58:32;100852.41;;;-3.92;68.59
73453;BME280;61687;56.232;43.854;2023-02-18T06:00:58;100849.44;;;-3.95;68.28
73453;BME280;61687;56.232;43.854;2023-02-18T06:03:24;100841.75;;;-3.86;68.40
73453;BME280;61687;56.232;43.854;2023-02-18T06:05:51;100839.56;;;-3.90;67.99
73453;BME280;61687;56.232;43.854;2023-02-18T06:08:17;100844.19;;;-3.85;68.03
73453;BME280;61687;56.232;43.854;2023-02-18T06:10:45;100842.63;;;-3.76;67.69
73453;BME280;61687;56.232;43.854;2023-02-18T06:13:11;100836.72;;;-3.78;67.79
73453;BME280;61687;56.232;43.854;2023-02-18T06:15:37;100837.81;;;-3.74;67.58
73453;BME280;61687;56.232;43.854;2023-02-18T06:18:04;100845.63;;;-3.67;67.69
73453;BME280;61687;56.232;43.854;2023-02-18T06:20:30;100835.69;;;-3.71;67.59
73453;BME280;61687;56.232;43.854;2023-02-18T06:22:56;100839.75;;;-3.64;67.55
73453;BME280;61687;56.232;43.854;2023-02-18T06:25:22;100835.22;;;-3.58;67.26
73453;BME280;61687;56.232;43.854;2023-02-18T06:27:48;100820.31;;;-3.49;67.13
73453;BME280;61687;56.232;43.854;2023-02-18T06:30:14;100822.47;;;-3.46;66.63
73453;BME280;61687;56.232;43.854;2023-02-18T06:32:40;100828.88;;;-3.47;66.52
73453;BME280;61687;56.232;43.854;2023-02-18T06:35:06;100814.38;;;-3.51;66.49
73453;BME280;61687;56.232;43.854;2023-02-18T06:37:32;100819.69;;;-3.56;66.70
73453;BME280;61687;56.232;43.854;2023-02-18T06:39:58;100815.44;;;-3.52;66.61
73453;BME280;61687;56.232;43.854;2023-02-18T06:42:24;100806.06;;;-3.54;66.63
73453;BME280;61687;56.232;43.854;2023-02-18T06:44:50;100808.75;;;-3.49;66.68
73453;BME280;61687;56.232;43.854;2023-02-18T06:47:15;100808.50;;;-3.48;66.45
73453;BME280;61687;56.232;43.854;2023-02-18T06:49:41;100802.09;;;-3.41;66.48
73453;BME280;61687;56.232;43.854;2023-02-18T06:52:07;100803.22;;;-3.32;66.16
73453;BME280;61687;56.232;43.854;2023-02-18T06:54:33;100799.50;;;-3.26;65.92
73453;BME280;61687;56.232;43.854;2023-02-18T06:56:59;100797.91;;;-3.17;65.45
73453;BME280;61687;56.232;43.854;2023-02-18T06:59:25;100801.44;;;-3.11;65.28
73453;BME280;61687;56.232;43.854;2023-02-18T07:01:51;100797.97;;;-3.06;64.78
73453;BME280;61687;56.232;43.854;2023-02-18T07:04:17;100791.47;;;-3.16;64.87
73453;BME280;61687;56.232;43.854;2023-02-18T07:06:42;100783.44;;;-3.16;64.60
73453;BME280;61687;56.232;43.854;2023-02-18T07:09:08;100785.59;;;-3.12;64.56
73453;BME280;61687;56.232;43.854;2023-02-18T07:11:34;100781.06;;;-3.07;64.31
73453;BME280;61687;56.232;43.854;2023-02-18T07:14:00;100778.38;;;-3.07;64.34
73453;BME280;61687;56.232;43.854;2023-02-18T07:16:26;100768.72;;;-3.03;64.34
73453;BME280;61687;56.232;43.854;2023-02-18T07:18:52;100769.56;;;-3.02;63.92
73453;BME280;61687;56.232;43.854;2023-02-18T07:21:19;100764.19;;;-2.97;64.11
73453;BME280;61687;56.232;43.854;2023-02-18T07:23:45;100763.66;;;-2.94;63.98
73453;BME280;61687;56.232;43.854;2023-02-18T07:26:12;100768.53;;;-2.85;63.96
73453;BME280;61687;56.232;43.854;2023-02-18T07:28:39;100766.38;;;-2.83;63.51
73453;BME280;61687;56.232;43.854;2023-02-18T07:31:06;100759.66;;;-2.86;63.60
73453;BME280;61687;56.232;43.854;2023-02-18T07:33:32;100765.84;;;-2.85;63.65
73453;BME280;61687;56.232;43.854;2023-02-18T07:35:59;100770.09;;;-2.90;63.77
73453;BME280;61687;56.232;43.854;2023-02-18T07:38:26;100757.50;;;-2.89;63.63
73453;BME280;61687;56.232;43.854;2023-02-18T07:40:53;100758.31;;;-2.89;63.66
73453;BME280;61687;56.232;43.854;2023-02-18T07:43:20;100758.03;;;-2.87;63.45
73453;BME280;61687;56.232;43.854;2023-02-18T07:45:46;100757.22;;;-2.88;63.46
73453;BME280;61687;56.232;43.854;2023-02-18T07:48:12;100749.75;;;-2.85;63.57
73453;BME280;61687;56.232;43.854;2023-02-18T07:50:41;100750.78;;;-2.87;63.52
73453;BME280;61687;56.232;43.854;2023-02-18T07:53:07;100740.84;;;-3.02;63.66
73453;BME280;61687;56.232;43.854;2023-02-18T07:55:33;100734.69;;;-2.97;63.87
73453;BME280;61687;56.232;43.854;2023-02-18T07:58:18;100733.91;;;-2.87;63.88
73453;BME280;61687;56.232;43.854;2023-02-18T08:00:45;100738.75;;;-2.74;63.43
73453;BME280;61687;56.232;43.854;2023-02-18T08:03:19;100740.09;;;-2.66;63.02
73453;BME280;61687;56.232;43.854;2023-02-18T08:05:47;100732.03;;;-2.71;62.95
73453;BME280;61687;56.232;43.854;2023-02-18T08:08:16;100731.53;;;-2.63;62.84
73453;BME280;61687;56.232;43.854;2023-02-18T08:10:45;100735.28;;;-2.59;62.73
73453;BME280;61687;56.232;43.854;2023-02-18T08:13:11;100723.19;;;-2.56;62.67
73453;BME280;61687;56.232;43.854;2023-02-18T08:15:37;100719.19;;;-2.53;62.47
73453;BME280;61687;56.232;43.854;2023-02-18T08:18:04;100711.91;;;-2.58;62.62
73453;BME280;61687;56.232;43.854;2023-02-18T08:20:30;100712.22;;;-2.60;62.81
73453;BME280;61687;56.232;43.854;2023-02-18T08:22:56;100711.38;;;-2.60;62.89
73453;BME280;61687;56.232;43.854;2023-02-18T08:25:28;100702.00;;;-2.52;62.85
73453;BME280;61687;56.232;43.854;2023-02-18T08:27:58;100697.69;;;-2.48;62.67
73453;BME280;61687;56.232;43.854;2023-02-18T08:30:26;100696.09;;;-2.44;62.69
73453;BME280;61687;56.232;43.854;2023-02-18T08:32:52;100702.25;;;-2.38;62.49
73453;BME280;61687;56.232;43.854;2023-02-18T08:35:18;100690.19;;;-2.41;62.39
73453;BME280;61687;56.232;43.854;2023-02-18T08:37:44;100692.31;;;-2.48;62.35
73453;BME280;61687;56.232;43.854;2023-02-18T08:40:11;100688.56;;;-2.47;62.49
73453;BME280;61687;56.232;43.854;2023-02-18T08:42:39;100689.38;;;-2.47;62.35
73453;BME280;61687;56.232;43.854;2023-02-18T08:45:06;100683.22;;;-2.42;62.55
73453;BME280;61687;56.232;43.854;2023-02-18T08:47:32;100684.00;;;-2.31;62.25
73453;BME280;61687;56.232;43.854;2023-02-18T08:49:58;100686.16;;;-2.28;62.16
73453;BME280;61687;56.232;43.854;2023-02-18T08:52:24;100681.03;;;-2.24;61.79
73453;BME280;61687;56.232;43.854;2023-02-18T08:54:50;100681.31;;;-2.36;62.27
73453;BME280;61687;56.232;43.854;2023-02-18T08:57:16;100671.38;;;-2.36;62.18
73453;BME280;61687;56.232;43.854;2023-02-18T08:59:42;100664.41;;;-2.32;62.34
73453;BME280;61687;56.232;43.854;2023-02-18T09:02:12;100668.97;;;-2.32;62.05
73453;BME280;61687;56.232;43.854;2023-02-18T09:04:38;100677.28;;;-2.34;62.39
73453;BME280;61687;56.232;43.854;2023-02-18T09:07:04;100674.59;;;-2.28;62.04
73453;BME280;61687;56.232;43.854;2023-02-18T09:09:31;100675.69;;;-2.35;61.74
73453;BME280;61687;56.232;43.854;2023-02-18T09:11:57;100670.88;;;-2.43;61.93
73453;BME280;61687;56.232;43.854;2023-02-18T09:14:23;100669.53;;;-2.46;62.08
73453;BME280;61687;56.232;43.854;2023-02-18T09:16:50;100674.09;;;-2.41;61.60
73453;BME280;61687;56.232;43.854;2023-02-18T09:19:16;100671.69;;;-2.48;61.89
73453;BME280;61687;56.232;43.854;2023-02-18T09:21:43;100668.19;;;-2.43;61.99
73453;BME280;61687;56.232;43.854;2023-02-18T09:24:09;100658.75;;;-2.35;61.89
73453;BME280;61687;56.232;43.854;2023-02-18T09:26:37;100651.53;;;-2.35;61.67
73453;BME280;61687;56.232;43.854;2023-02-18T09:29:03;100646.69;;;-2.38;61.93
73453;BME280;61687;56.232;43.854;2023-02-18T09:31:29;100646.69;;;-2.33;61.85
73453;BME280;61687;56.232;43.854;2023-02-18T09:33:58;100643.44;;;-2.30;61.79
73453;BME280;61687;56.232;43.854;2023-02-18T09:36:24;100635.13;;;-2.28;61.86
73453;BME280;61687;56.232;43.854;2023-02-18T09:38:50;100637.53;;;-2.21;61.86
73453;BME280;61687;56.232;43.854;2023-02-18T09:41:26;100637.53;;;-2.21;61.36
73453;BME280;61687;56.232;43.854;2023-02-18T09:43:58;100634.31;;;-2.28;61.79
73453;BME280;61687;56.232;43.854;2023-02-18T09:46:30;100627.88;;;-2.27;61.64
73453;BME280;61687;56.232;43.854;2023-02-18T09:49:03;100622.50;;;-2.27;61.64
73453;BME280;61687;56.232;43.854;2023-02-18T09:51:31;100620.66;;;-2.32;62.17
73453;BME280;61687;56.232;43.854;2023-02-18T09:53:58;100617.69;;;-2.31;61.80
73453;BME280;61687;56.232;43.854;2023-02-18T09:56:32;100614.50;;;-2.38;61.66
73453;BME280;61687;56.232;43.854;2023-02-18T09:59:03;100609.69;;;-2.41;61.40
73453;BME280;61687;56.232;43.854;2023-02-18T10:01:40;100605.63;;;-2.38;61.38
73453;BME280;61687;56.232;43.854;2023-02-18T10:04:20;100602.94;;;-2.38;61.56
73453;BME280;61687;56.232;43.854;2023-02-18T10:06:50;100592.22;;;-2.33;61.69
73453;BME280;61687;56.232;43.854;2023-02-18T10:09:37;100591.66;;;-2.30;61.55
73453;BME280;61687;56.232;43.854;2023-02-18T10:12:15;100590.31;;;-2.33;61.56
73453;BME280;61687;56.232;43.854;2023-02-18T10:14:44;100591.97;;;-2.42;61.98
73453;BME280;61687;56.232;43.854;2023-02-18T10:17:14;100590.91;;;-2.56;61.84
73453;BME280;61687;56.232;43.854;2023-02-18T10:19:42;100588.75;;;-2.54;62.03
73453;BME280;61687;56.232;43.854;2023-02-18T10:22:12;100584.75;;;-2.52;61.96
73453;BME280;61687;56.232;43.854;2023-02-18T10:24:42;100582.84;;;-2.51;62.00
73453;BME280;61687;56.232;43.854;2023-02-18T10:27:24;100588.22;;;-2.51;62.04
73453;BME280;61687;56.232;43.854;2023-02-18T10:29:51;100582.56;;;-2.45;61.87
73453;BME280;61687;56.232;43.854;2023-02-18T10:32:20;100579.34;;;-2.47;61.81
73453;BME280;61687;56.232;43.854;2023-02-18T10:35:14;100576.69;;;-2.57;61.71
73453;BME280;61687;56.232;43.854;2023-02-18T10:38:03;100565.69;;;-2.55;62.00
73453;BME280;61687;56.232;43.854;2023-02-18T10:46:29;100563.53;;;-2.53;62.33
73453;BME280;61687;56.232;43.854;2023-02-18T10:52:02;100555.47;;;-2.53;62.24
73453;BME280;61687;56.232;43.854;2023-02-18T10:54:48;100556.88;;;-2.66;62.23
73453;BME280;61687;56.232;43.854;2023-02-18T10:57:21;100542.34;;;-2.60;62.29
73453;BME280;61687;56.232;43.854;2023-02-18T10:59:56;100546.88;;;-2.50;62.24
73453;BME280;61687;56.232;43.854;2023-02-18T11:02:26;100550.09;;;-2.43;62.07
73453;BME280;61687;56.232;43.854;2023-02-18T11:04:57;100540.41;;;-2.34;61.90
73453;BME280;61687;56.232;43.854;2023-02-18T11:07:30;100548.19;;;-2.37;62.04
73453;BME280;61687;56.232;43.854;2023-02-18T11:10:01;100538.81;;;-2.40;62.08
73453;BME280;61687;56.232;43.854;2023-02-18T11:12:42;100539.91;;;-2.41;62.09
73453;BME280;61687;56.232;43.854;2023-02-18T11:17:35;100529.41;;;-2.37;62.20
73453;BME280;61687;56.232;43.854;2023-02-18T11:23:13;100520.03;;;-2.40;62.03
73453;BME280;61687;56.232;43.854;2023-02-18T11:25:40;100521.63;;;-2.39;61.98
73453;BME280;61687;56.232;43.854;2023-02-18T11:30:46;100518.97;;;-2.44;62.26
73453;BME280;61687;56.232;43.854;2023-02-18T11:33:27;100513.06;;;-2.46;62.37
73453;BME280;61687;56.232;43.854;2023-02-18T11:36:50;100514.41;;;-2.43;62.36
73453;BME280;61687;56.232;43.854;2023-02-18T11:38:56;100510.09;;;-2.39;62.07
73453;BME280;61687;56.232;43.854;2023-02-18T11:43:58;100506.69;;;-2.61;61.51
73453;BME280;61687;56.232;43.854;2023-02-18T11:46:26;100506.69;;;-2.71;61.74
73453;BME280;61687;56.232;43.854;2023-02-18T11:48:54;100500.28;;;-2.75;61.95
73453;BME280;61687;56.232;43.854;2023-02-18T11:51:27;100496.84;;;-2.91;62.23
73453;BME280;61687;56.232;43.854;2023-02-18T11:53:59;100492.28;;;-2.96;62.54
73453;BME280;61687;56.232;43.854;2023-02-18T11:56:35;100486.66;;;-2.94;62.85
73453;BME280;61687;56.232;43.854;2023-02-18T11:59:03;100494.94;;;-2.91;62.98
73453;BME280;61687;56.232;43.854;2023-02-18T12:02:31;100486.91;;;-2.85;62.95
73453;BME280;61687;56.232;43.854;2023-02-18T12:04:45;100485.03;;;-2.90;63.11
73453;BME280;61687;56.232;43.854;2023-02-18T12:09:59;100478.63;;;-2.94;63.25
73453;BME280;61687;56.232;43.854;2023-02-18T12:12:31;100483.97;;;-2.99;63.11
73453;BME280;61687;56.232;43.854;2023-02-18T12:15:01;100485.88;;;-3.00;63.11
73453;BME280;61687;56.232;43.854;2023-02-18T12:17:41;100478.38;;;-3.03;63.26
73453;BME280;61687;56.232;43.854;2023-02-18T12:28:43;100465.75;;;-3.03;63.17
73453;BME280;61687;56.232;43.854;2023-02-18T12:51:09;100446.22;;;-3.29;63.16
73453;BME280;61687;56.232;43.854;2023-02-18T12:56:44;100445.22;;;-3.49;63.46
73453;BME280;61687;56.232;43.854;2023-02-18T13:18:00;100426.44;;;-3.49;63.92
73453;BME280;61687;56.232;43.854;2023-02-18T13:20:41;100418.94;;;-3.57;63.77
73453;BME280;61687;56.232;43.854;2023-02-18T13:23:16;100416.00;;;-3.55;63.79
73453;BME280;61687;56.232;43.854;2023-02-18T13:25:43;100417.59;;;-3.54;63.67
73453;BME280;61687;56.232;43.854;2023-02-18T13:28:23;100412.50;;;-3.56;63.87
73453;BME280;61687;56.232;43.854;2023-02-18T13:33:24;100413.59;;;-3.57;63.64
73453;BME280;61687;56.232;43.854;2023-02-18T13:36:02;100406.91;;;-3.60;63.50
73453;BME280;61687;56.232;43.854;2023-02-18T13:41:18;100410.09;;;-3.68;63.55
73453;BME280;61687;56.232;43.854;2023-02-18T13:43:44;100413.06;;;-3.75;63.92
73453;BME280;61687;56.232;43.854;2023-02-18T13:46:14;100412.78;;;-3.83;63.87
73453;BME280;61687;56.232;43.854;2023-02-18T13:51:38;100404.75;;;-3.89;63.67
73453;BME280;61687;56.232;43.854;2023-02-18T13:56:44;100412.25;;;-4.11;64.01
73453;BME280;61687;56.232;43.854;2023-02-18T13:59:36;100408.22;;;-4.24;64.15
73453;BME280;61687;56.232;43.854;2023-02-18T14:07:50;100415.41;;;-4.30;64.73
73453;BME280;61687;56.232;43.854;2023-02-18T14:26:05;100400.16;;;-4.40;64.71
73453;BME280;61687;56.232;43.854;2023-02-18T14:33:40;100390.31;;;-4.24;65.00
73453;BME280;61687;56.232;43.854;2023-02-18T14:44:27;100382.00;;;-4.27;64.58
73453;BME280;61687;56.232;43.854;2023-02-18T14:47:24;100384.38;;;-4.26;64.69
73453;BME280;61687;56.232;43.854;2023-02-18T14:49:57;100378.78;;;-4.29;64.47
73453;BME280;61687;56.232;43.854;2023-02-18T14:55:06;100370.19;;;-4.42;64.35
73453;BME280;61687;56.232;43.854;2023-02-18T14:57:45;100371.53;;;-4.39;64.22
73453;BME280;61687;56.232;43.854;2023-02-18T15:00:21;100371.00;;;-4.36;64.28
73453;BME280;61687;56.232;43.854;2023-02-18T15:02:52;100371.28;;;-4.33;63.80
73453;BME280;61687;56.232;43.854;2023-02-18T15:05:20;100372.59;;;-4.35;63.63
73453;BME280;61687;56.232;43.854;2023-02-18T15:13:02;100368.78;;;-4.70;63.75
73453;BME280;61687;56.232;43.854;2023-02-18T15:15:29;100364.78;;;-4.73;63.84
73453;BME280;61687;56.232;43.854;2023-02-18T15:17:57;100362.88;;;-4.78;63.99
73453;BME280;61687;56.232;43.854;2023-02-18T15:20:23;100360.47;;;-4.79;63.78
73453;BME280;61687;56.232;43.854;2023-02-18T15:22:50;100366.88;;;-4.80;63.95
73453;BME280;61687;56.232;43.854;2023-02-18T15:25:16;100362.59;;;-4.81;63.96
73453;BME280;61687;56.232;43.854;2023-02-18T15:27:43;100368.25;;;-4.78;64.06
73453;BME280;61687;56.232;43.854;2023-02-18T15:30:28;100360.75;;;-4.81;64.12
73453;BME280;61687;56.232;43.854;2023-02-18T15:33:00;100356.47;;;-4.82;64.02
73453;BME280;61687;56.232;43.854;2023-02-18T15:35:31;100354.84;;;-4.83;64.07
73453;BME280;61687;56.232;43.854;2023-02-18T15:37:59;100356.72;;;-4.83;64.10
73453;BME280;61687;56.232;43.854;2023-02-18T15:40:31;100352.72;;;-4.81;63.90